AIZ828 LLER-LLBG
Flight info
| Callsign | AIZ828 |
|---|---|
| Flight time | 0h 35m |
| Altitude | 23000 |
| Route | NURIT J10 AMMIT |
| Aircraft | A320/M-SDE3FGHIRWY/LB1 |
Departure
| Time | 2026-04-30 13:08 |
|---|---|
| Airport | Ramon International Airport (LLER) |
Arrival
| Time | 2026-04-30 13:43 |
|---|---|
| Airport | Ben Gurion International Airport (LLBG) |
| Time | Latitude | Longitude | Altitude | Speed | Heading |
|---|---|---|---|---|---|
| 2026-04-30 12:54 | 29.72732 | 35.00880 | 252 ft | 0 kts | 282° |
| 2026-04-30 13:01 | 29.72732 | 35.00882 | 279 ft | 2 kts | 282° |
| 2026-04-30 13:01 | 29.72728 | 35.00911 | 252 ft | 4 kts | 269° |
| 2026-04-30 13:01 | 29.72733 | 35.00940 | 252 ft | 4 kts | 237° |
| 2026-04-30 13:02 | 29.72747 | 35.00955 | 252 ft | 1 kts | 194° |
| 2026-04-30 13:02 | 29.72751 | 35.00956 | 252 ft | 0 kts | 194° |
| 2026-04-30 13:05 | 29.72750 | 35.00956 | 252 ft | 0 kts | 194° |
| 2026-04-30 13:05 | 29.72712 | 35.00944 | 252 ft | 12 kts | 194° |
| 2026-04-30 13:06 | 29.72524 | 35.00891 | 252 ft | 18 kts | 192° |
| 2026-04-30 13:06 | 29.72427 | 35.00903 | 253 ft | 13 kts | 127° |
| 2026-04-30 13:06 | 29.72399 | 35.00997 | 254 ft | 12 kts | 110° |
| 2026-04-30 13:06 | 29.72358 | 35.01067 | 257 ft | 12 kts | 155° |
| 2026-04-30 13:07 | 29.72237 | 35.01068 | 259 ft | 15 kts | 153° |
| 2026-04-30 13:07 | 29.72210 | 35.01159 | 270 ft | 14 kts | 104° |
| 2026-04-30 13:07 | 29.72198 | 35.01230 | 280 ft | 5 kts | 91° |
| 2026-04-30 13:07 | 29.72273 | 35.01283 | 281 ft | 25 kts | 11° |
| 2026-04-30 13:08 | 29.72681 | 35.01401 | 279 ft | 94 kts | 13° |
| 2026-04-30 13:08 | 29.73500 | 35.01635 | 310 ft | 143 kts | 16° |
| 2026-04-30 13:08 | 29.74468 | 35.01820 | 732 ft | 148 kts | 4° |
| 2026-04-30 13:08 | 29.75552 | 35.01865 | 1048 ft | 161 kts | 2° |
| 2026-04-30 13:09 | 29.76697 | 35.01954 | 1512 ft | 169 kts | 359° |
| 2026-04-30 13:09 | 29.77905 | 35.02041 | 2084 ft | 175 kts | 1° |
| 2026-04-30 13:09 | 29.79117 | 35.02164 | 2812 ft | 174 kts | 5° |
| 2026-04-30 13:09 | 29.80308 | 35.02416 | 3494 ft | 173 kts | 11° |
| 2026-04-30 13:10 | 29.81502 | 35.02697 | 3966 ft | 181 kts | 7° |
| 2026-04-30 13:10 | 29.82838 | 35.02954 | 4026 ft | 206 kts | 6° |
| 2026-04-30 13:10 | 29.84303 | 35.03211 | 4390 ft | 221 kts | 6° |
| 2026-04-30 13:10 | 29.85906 | 35.03477 | 4736 ft | 245 kts | 6° |
| 2026-04-30 13:11 | 29.87661 | 35.03751 | 5252 ft | 261 kts | 6° |
| 2026-04-30 13:11 | 29.89502 | 35.04026 | 5972 ft | 271 kts | 6° |
| 2026-04-30 13:11 | 29.91407 | 35.04306 | 6689 ft | 281 kts | 6° |
| 2026-04-30 13:11 | 29.93376 | 35.04598 | 7410 ft | 289 kts | 6° |
| 2026-04-30 13:12 | 29.95389 | 35.04894 | 8182 ft | 295 kts | 6° |
| 2026-04-30 13:12 | 29.97437 | 35.05189 | 8992 ft | 299 kts | 7° |
| 2026-04-30 13:12 | 29.99529 | 35.05486 | 9766 ft | 306 kts | 7° |
| 2026-04-30 13:13 | 30.03974 | 35.06134 | 10542 ft | 344 kts | 7° |
| 2026-04-30 13:13 | 30.06433 | 35.06501 | 10800 ft | 365 kts | 7° |
| 2026-04-30 13:13 | 30.11533 | 35.07423 | 12028 ft | 378 kts | 9° |
| 2026-04-30 13:14 | 30.14130 | 35.07978 | 12779 ft | 381 kts | 9° |
| 2026-04-30 13:14 | 30.16776 | 35.08556 | 13524 ft | 384 kts | 9° |
| 2026-04-30 13:14 | 30.22027 | 35.09702 | 14825 ft | 389 kts | 8° |
| 2026-04-30 13:15 | 30.24699 | 35.10251 | 15462 ft | 391 kts | 7° |
| 2026-04-30 13:15 | 30.30109 | 35.11262 | 16714 ft | 397 kts | 7° |
| 2026-04-30 13:15 | 30.32846 | 35.11760 | 17338 ft | 399 kts | 7° |
| 2026-04-30 13:16 | 30.35603 | 35.12267 | 17952 ft | 403 kts | 7° |
| 2026-04-30 13:16 | 30.38386 | 35.12791 | 18535 ft | 406 kts | 7° |
| 2026-04-30 13:16 | 30.41177 | 35.13326 | 19072 ft | 408 kts | 7° |
| 2026-04-30 13:17 | 30.46824 | 35.14425 | 20122 ft | 414 kts | 6° |
| 2026-04-30 13:17 | 30.49673 | 35.14982 | 20651 ft | 417 kts | 6° |
| 2026-04-30 13:17 | 30.55430 | 35.16188 | 21609 ft | 425 kts | 12° |
| 2026-04-30 13:18 | 30.58244 | 35.17324 | 22063 ft | 431 kts | 20° |
| 2026-04-30 13:18 | 30.63798 | 35.20072 | 22877 ft | 437 kts | 20° |
| 2026-04-30 13:18 | 30.66573 | 35.21442 | 22956 ft | 444 kts | 19° |
| 2026-04-30 13:19 | 30.69451 | 35.22854 | 22958 ft | 454 kts | 19° |
| 2026-04-30 13:19 | 30.72379 | 35.24285 | 22958 ft | 457 kts | 19° |
| 2026-04-30 13:19 | 30.75313 | 35.25722 | 22965 ft | 458 kts | 19° |
| 2026-04-30 13:19 | 30.78245 | 35.27164 | 22963 ft | 458 kts | 20° |
| 2026-04-30 13:20 | 30.81174 | 35.28609 | 22710 ft | 456 kts | 20° |
| 2026-04-30 13:20 | 30.84076 | 35.30044 | 22209 ft | 451 kts | 20° |
| 2026-04-30 13:20 | 30.86953 | 35.31469 | 21718 ft | 448 kts | 20° |
| 2026-04-30 13:20 | 30.89811 | 35.32882 | 21248 ft | 444 kts | 20° |
| 2026-04-30 13:21 | 30.92665 | 35.34242 | 20769 ft | 440 kts | 17° |
| 2026-04-30 13:21 | 30.95599 | 35.35163 | 20314 ft | 434 kts | 8° |
| 2026-04-30 13:21 | 30.98539 | 35.35576 | 19855 ft | 429 kts | 2° |
| 2026-04-30 13:22 | 31.04462 | 35.36166 | 18957 ft | 425 kts | 2° |
| 2026-04-30 13:22 | 31.07396 | 35.36462 | 18512 ft | 422 kts | 2° |
| 2026-04-30 13:22 | 31.13225 | 35.37064 | 17562 ft | 418 kts | 3° |
| 2026-04-30 13:23 | 31.16116 | 35.37369 | 17090 ft | 416 kts | 4° |
| 2026-04-30 13:23 | 31.21854 | 35.37982 | 16177 ft | 412 kts | 4° |
| 2026-04-30 13:24 | 31.27526 | 35.38580 | 15291 ft | 407 kts | 4° |
| 2026-04-30 13:24 | 31.33101 | 35.39179 | 14427 ft | 403 kts | 7° |
| 2026-04-30 13:25 | 31.38606 | 35.40360 | 13511 ft | 401 kts | 11° |
| 2026-04-30 13:25 | 31.44060 | 35.41579 | 12520 ft | 397 kts | 11° |
| 2026-04-30 13:26 | 31.52005 | 35.43360 | 11113 ft | 378 kts | 11° |
| 2026-04-30 13:26 | 31.57107 | 35.44500 | 10213 ft | 368 kts | 11° |
| 2026-04-30 13:27 | 31.61997 | 35.45589 | 9648 ft | 347 kts | 11° |
| 2026-04-30 13:28 | 31.68658 | 35.47120 | 8279 ft | 306 kts | 8° |
| 2026-04-30 13:28 | 31.72721 | 35.47080 | 7399 ft | 282 kts | 339° |
| 2026-04-30 13:28 | 31.74329 | 35.45891 | 6968 ft | 269 kts | 309° |
| 2026-04-30 13:29 | 31.76235 | 35.42237 | 6109 ft | 260 kts | 295° |
| 2026-04-30 13:29 | 31.77905 | 35.38487 | 5976 ft | 259 kts | 294° |
| 2026-04-30 13:30 | 31.80418 | 35.32857 | 5989 ft | 257 kts | 295° |
| 2026-04-30 13:31 | 31.82036 | 35.29135 | 5985 ft | 252 kts | 295° |
| 2026-04-30 13:31 | 31.84299 | 35.23867 | 5996 ft | 239 kts | 291° |
| 2026-04-30 13:32 | 31.85611 | 35.20265 | 5996 ft | 240 kts | 290° |
| 2026-04-30 13:32 | 31.86993 | 35.16712 | 5987 ft | 237 kts | 293° |
| 2026-04-30 13:33 | 31.88272 | 35.13133 | 5994 ft | 238 kts | 290° |
| 2026-04-30 13:33 | 31.89583 | 35.09560 | 5995 ft | 237 kts | 294° |
| 2026-04-30 13:34 | 31.90347 | 35.07915 | 6021 ft | 220 kts | 299° |
| 2026-04-30 13:34 | 31.94046 | 35.06329 | 5941 ft | 223 kts | 35° |
| 2026-04-30 13:35 | 31.95184 | 35.07637 | 5681 ft | 232 kts | 58° |
| 2026-04-30 13:35 | 31.96838 | 35.10825 | 5195 ft | 219 kts | 83° |
| 2026-04-30 13:36 | 31.95799 | 35.13638 | 4778 ft | 188 kts | 148° |
| 2026-04-30 13:36 | 31.94652 | 35.14393 | 4315 ft | 191 kts | 154° |
| 2026-04-30 13:36 | 31.92152 | 35.15815 | 4023 ft | 227 kts | 157° |
| 2026-04-30 13:37 | 31.90633 | 35.16176 | 3975 ft | 218 kts | 188° |
| 2026-04-30 13:37 | 31.88397 | 35.14261 | 3993 ft | 201 kts | 250° |
| 2026-04-30 13:38 | 31.88418 | 35.11630 | 3997 ft | 198 kts | 297° |
| 2026-04-30 13:38 | 31.89120 | 35.10240 | 3999 ft | 198 kts | 302° |
| 2026-04-30 13:38 | 31.90782 | 35.07081 | 3719 ft | 191 kts | 302° |
| 2026-04-30 13:39 | 31.91929 | 35.04887 | 3282 ft | 183 kts | 303° |
| 2026-04-30 13:39 | 31.93177 | 35.02497 | 2806 ft | 161 kts | 303° |
| 2026-04-30 13:40 | 31.93747 | 35.01407 | 2588 ft | 156 kts | 303° |
| 2026-04-30 13:40 | 31.94298 | 35.00350 | 2379 ft | 146 kts | 303° |
| 2026-04-30 13:40 | 31.94812 | 34.99366 | 2187 ft | 137 kts | 304° |
| 2026-04-30 13:40 | 31.95313 | 34.98407 | 1977 ft | 136 kts | 304° |
| 2026-04-30 13:41 | 31.95803 | 34.97468 | 1787 ft | 134 kts | 305° |
| 2026-04-30 13:41 | 31.96290 | 34.96535 | 1599 ft | 132 kts | 306° |
| 2026-04-30 13:41 | 31.96775 | 34.95605 | 1406 ft | 135 kts | 305° |
| 2026-04-30 13:41 | 31.97266 | 34.94664 | 1217 ft | 134 kts | 305° |
| 2026-04-30 13:42 | 31.97750 | 34.93734 | 1027 ft | 133 kts | 305° |
| 2026-04-30 13:42 | 31.98236 | 34.92803 | 854 ft | 134 kts | 304° |
| 2026-04-30 13:42 | 31.99185 | 34.90942 | 418 ft | 131 kts | 302° |
| 2026-04-30 13:43 | 31.99672 | 34.90033 | 291 ft | 132 kts | 303° |
| 2026-04-30 13:43 | 32.00146 | 34.89135 | 126 ft | 120 kts | 303° |
| 2026-04-30 13:43 | 32.00507 | 34.88447 | 122 ft | 64 kts | 301° |
| 2026-04-30 13:43 | 32.00686 | 34.88102 | 118 ft | 36 kts | 300° |
| 2026-04-30 13:44 | 32.00671 | 34.87969 | 119 ft | 15 kts | 214° |
| 2026-04-30 13:44 | 32.00575 | 34.87916 | 120 ft | 16 kts | 201° |
| 2026-04-30 13:44 | 32.00520 | 34.87963 | 118 ft | 12 kts | 115° |
| 2026-04-30 13:44 | 32.00478 | 34.88060 | 118 ft | 18 kts | 120° |
| 2026-04-30 13:45 | 32.00305 | 34.88403 | 117 ft | 23 kts | 121° |
| 2026-04-30 13:45 | 32.00224 | 34.88556 | 120 ft | 21 kts | 121° |
| 2026-04-30 13:45 | 32.00150 | 34.88697 | 120 ft | 19 kts | 122° |
| 2026-04-30 13:46 | 32.00083 | 34.88826 | 119 ft | 17 kts | 121° |
| 2026-04-30 13:46 | 32.00023 | 34.88941 | 117 ft | 16 kts | 122° |
| 2026-04-30 13:46 | 31.99966 | 34.89052 | 118 ft | 15 kts | 124° |
| 2026-04-30 13:46 | 31.99901 | 34.89135 | 118 ft | 13 kts | 161° |
| 2026-04-30 13:47 | 31.99821 | 34.89117 | 120 ft | 11 kts | 192° |
| 2026-04-30 13:47 | 31.99792 | 34.89148 | 119 ft | 7 kts | 108° |
| 2026-04-30 13:47 | 31.99776 | 34.89207 | 119 ft | 6 kts | 108° |
| 2026-04-30 13:47 | 31.99770 | 34.89229 | 117 ft | 1 kts | 108° |
| 2026-04-30 13:48 | 31.99770 | 34.89230 | 117 ft | 0 kts | 108° |